sensor_id;sensor_type;location;lat;lon;timestamp;temperature;humidity
21551;DHT22;10936;49.836;7.078;2023-02-15T06:02:26;20.20;86.90
21551;DHT22;10936;49.836;7.078;2023-02-15T06:04:52;20.20;86.90
21551;DHT22;10936;49.836;7.078;2023-02-15T06:07:17;20.20;86.90
21551;DHT22;10936;49.836;7.078;2023-02-15T06:09:43;20.20;86.90
21551;DHT22;10936;49.836;7.078;2023-02-15T06:12:09;20.20;86.70
21551;DHT22;10936;49.836;7.078;2023-02-15T06:14:34;20.20;86.70
21551;DHT22;10936;49.836;7.078;2023-02-15T06:17:00;20.10;86.80
21551;DHT22;10936;49.836;7.078;2023-02-15T06:19:25;20.20;86.90
21551;DHT22;10936;49.836;7.078;2023-02-15T06:21:51;20.20;87.00
21551;DHT22;10936;49.836;7.078;2023-02-15T06:24:16;20.20;87.00
21551;DHT22;10936;49.836;7.078;2023-02-15T06:26:42;20.20;87.40
21551;DHT22;10936;49.836;7.078;2023-02-15T06:29:08;20.20;87.40
21551;DHT22;10936;49.836;7.078;2023-02-15T06:31:33;20.20;87.50
21551;DHT22;10936;49.836;7.078;2023-02-15T06:33:59;20.20;87.50
21551;DHT22;10936;49.836;7.078;2023-02-15T06:36:28;20.20;87.40
21551;DHT22;10936;49.836;7.078;2023-02-15T06:38:54;20.20;87.30
21551;DHT22;10936;49.836;7.078;2023-02-15T06:41:20;20.20;87.30
21551;DHT22;10936;49.836;7.078;2023-02-15T06:43:46;20.10;87.10
21551;DHT22;10936;49.836;7.078;2023-02-15T06:46:11;20.20;87.00
21551;DHT22;10936;49.836;7.078;2023-02-15T06:48:37;20.20;87.00
21551;DHT22;10936;49.836;7.078;2023-02-15T06:51:03;20.20;86.80
21551;DHT22;10936;49.836;7.078;2023-02-15T06:53:28;20.20;86.70
21551;DHT22;10936;49.836;7.078;2023-02-15T06:56:03;20.20;86.50
21551;DHT22;10936;49.836;7.078;2023-02-15T06:58:32;20.20;86.30
21551;DHT22;10936;49.836;7.078;2023-02-15T07:00:58;20.20;86.30
21551;DHT22;10936;49.836;7.078;2023-02-15T07:03:23;20.20;86.30
21551;DHT22;10936;49.836;7.078;2023-02-15T07:05:57;20.20;86.20
21551;DHT22;10936;49.836;7.078;2023-02-15T07:08:23;20.20;86.20
21551;DHT22;10936;49.836;7.078;2023-02-15T07:10:50;20.20;86.10
21551;DHT22;10936;49.836;7.078;2023-02-15T07:13:16;20.20;86.20
21551;DHT22;10936;49.836;7.078;2023-02-15T07:15:41;20.20;86.10
21551;DHT22;10936;49.836;7.078;2023-02-15T07:18:07;20.20;86.00
21551;DHT22;10936;49.836;7.078;2023-02-15T07:20:32;20.20;86.00
21551;DHT22;10936;49.836;7.078;2023-02-15T07:23:02;20.20;86.00
21551;DHT22;10936;49.836;7.078;2023-02-15T07:25:27;20.20;85.90
21551;DHT22;10936;49.836;7.078;2023-02-15T07:28:00;20.30;85.90
21551;DHT22;10936;49.836;7.078;2023-02-15T07:30:27;20.30;85.80
21551;DHT22;10936;49.836;7.078;2023-02-15T07:32:59;20.30;85.70
21551;DHT22;10936;49.836;7.078;2023-02-15T07:35:50;20.30;85.60
21551;DHT22;10936;49.836;7.078;2023-02-15T07:38:17;20.30;85.60
21551;DHT22;10936;49.836;7.078;2023-02-15T07:40:43;20.40;85.70
21551;DHT22;10936;49.836;7.078;2023-02-15T07:43:09;20.40;85.50
21551;DHT22;10936;49.836;7.078;2023-02-15T07:45:35;20.40;85.40
21551;DHT22;10936;49.836;7.078;2023-02-15T07:48:02;20.50;85.20
21551;DHT22;10936;49.836;7.078;2023-02-15T07:50:28;20.50;85.00
21551;DHT22;10936;49.836;7.078;2023-02-15T07:52:53;20.50;84.80
21551;DHT22;10936;49.836;7.078;2023-02-15T07:55:19;20.60;84.80
21551;DHT22;10936;49.836;7.078;2023-02-15T07:57:46;20.60;84.70
21551;DHT22;10936;49.836;7.078;2023-02-15T08:00:17;20.60;84.50
21551;DHT22;10936;49.836;7.078;2023-02-15T08:02:48;20.60;84.50
21551;DHT22;10936;49.836;7.078;2023-02-15T08:05:14;20.70;84.50
21551;DHT22;10936;49.836;7.078;2023-02-15T08:07:39;20.70;84.40
21551;DHT22;10936;49.836;7.078;2023-02-15T08:10:06;20.70;84.40
21551;DHT22;10936;49.836;7.078;2023-02-15T08:12:31;20.80;83.80
21551;DHT22;10936;49.836;7.078;2023-02-15T08:14:57;20.80;84.10
21551;DHT22;10936;49.836;7.078;2023-02-15T08:17:22;20.90;84.70
21551;DHT22;10936;49.836;7.078;2023-02-15T08:19:48;20.90;84.40
21551;DHT22;10936;49.836;7.078;2023-02-15T08:22:14;20.90;84.10
21551;DHT22;10936;49.836;7.078;2023-02-15T08:24:40;21.00;83.90
21551;DHT22;10936;49.836;7.078;2023-02-15T08:27:08;21.00;84.10
21551;DHT22;10936;49.836;7.078;2023-02-15T08:29:36;21.00;84.00
21551;DHT22;10936;49.836;7.078;2023-02-15T08:32:05;21.10;83.60
21551;DHT22;10936;49.836;7.078;2023-02-15T08:34:33;21.10;83.60
21551;DHT22;10936;49.836;7.078;2023-02-15T08:36:59;21.20;83.70
21551;DHT22;10936;49.836;7.078;2023-02-15T08:39:25;21.30;84.70
21551;DHT22;10936;49.836;7.078;2023-02-15T08:41:51;21.40;83.90
21551;DHT22;10936;49.836;7.078;2023-02-15T08:44:18;21.40;83.70
21551;DHT22;10936;49.836;7.078;2023-02-15T08:46:45;21.50;83.80
21551;DHT22;10936;49.836;7.078;2023-02-15T08:49:13;21.50;83.70
21551;DHT22;10936;49.836;7.078;2023-02-15T08:51:40;21.50;83.70
21551;DHT22;10936;49.836;7.078;2023-02-15T08:54:09;21.50;83.40
21551;DHT22;10936;49.836;7.078;2023-02-15T08:56:39;21.50;83.40
21551;DHT22;10936;49.836;7.078;2023-02-15T08:59:06;21.50;83.30
21551;DHT22;10936;49.836;7.078;2023-02-15T09:01:34;21.50;83.40
21551;DHT22;10936;49.836;7.078;2023-02-15T09:04:02;21.50;83.20
21551;DHT22;10936;49.836;7.078;2023-02-15T09:06:29;21.60;83.20
21551;DHT22;10936;49.836;7.078;2023-02-15T09:08:56;21.60;83.10
21551;DHT22;10936;49.836;7.078;2023-02-15T09:11:24;21.60;83.30
21551;DHT22;10936;49.836;7.078;2023-02-15T09:14:03;21.60;83.30
21551;DHT22;10936;49.836;7.078;2023-02-15T09:16:31;21.60;82.90
21551;DHT22;10936;49.836;7.078;2023-02-15T09:18:58;21.70;83.10
21551;DHT22;10936;49.836;7.078;2023-02-15T09:21:25;21.70;83.20
21551;DHT22;10936;49.836;7.078;2023-02-15T09:23:55;21.70;83.20
21551;DHT22;10936;49.836;7.078;2023-02-15T09:26:23;21.80;83.30
21551;DHT22;10936;49.836;7.078;2023-02-15T09:28:52;21.80;83.20
21551;DHT22;10936;49.836;7.078;2023-02-15T09:31:20;21.80;83.10
21551;DHT22;10936;49.836;7.078;2023-02-15T09:33:47;21.80;83.10
21551;DHT22;10936;49.836;7.078;2023-02-15T09:38:44;21.80;83.10
21551;DHT22;10936;49.836;7.078;2023-02-15T09:54:55;21.90;82.70
21551;DHT22;10936;49.836;7.078;2023-02-15T09:57:30;21.90;82.70
21551;DHT22;10936;49.836;7.078;2023-02-15T10:11:01;22.10;82.40
21551;DHT22;10936;49.836;7.078;2023-02-15T10:14:13;22.10;82.40
21551;DHT22;10936;49.836;7.078;2023-02-15T10:20:02;22.10;82.00
21551;DHT22;10936;49.836;7.078;2023-02-15T10:27:49;22.20;82.40
21551;DHT22;10936;49.836;7.078;2023-02-15T10:30:26;22.10;82.20
21551;DHT22;10936;49.836;7.078;2023-02-15T10:33:04;22.20;82.50
21551;DHT22;10936;49.836;7.078;2023-02-15T10:41:24;22.20;82.50
21551;DHT22;10936;49.836;7.078;2023-02-15T11:00:31;22.30;82.80
21551;DHT22;10936;49.836;7.078;2023-02-15T11:08:35;22.30;82.70
21551;DHT22;10936;49.836;7.078;2023-02-15T11:11:08;22.30;83.40
21551;DHT22;10936;49.836;7.078;2023-02-15T11:13:44;22.30;82.70
21551;DHT22;10936;49.836;7.078;2023-02-15T11:16:19;22.30;82.80
21551;DHT22;10936;49.836;7.078;2023-02-15T11:18:53;22.30;82.70
21551;DHT22;10936;49.836;7.078;2023-02-15T11:21:32;22.40;82.80
21551;DHT22;10936;49.836;7.078;2023-02-15T11:24:12;22.40;82.80
21551;DHT22;10936;49.836;7.078;2023-02-15T11:26:46;22.40;83.70
21551;DHT22;10936;49.836;7.078;2023-02-15T11:31:54;22.40;82.80
21551;DHT22;10936;49.836;7.078;2023-02-15T11:34:38;22.40;82.80
21551;DHT22;10936;49.836;7.078;2023-02-15T11:37:10;22.40;82.80
21551;DHT22;10936;49.836;7.078;2023-02-15T11:39:36;22.40;83.60
21551;DHT22;10936;49.836;7.078;2023-02-15T11:42:11;22.40;82.80
21551;DHT22;10936;49.836;7.078;2023-02-15T11:45:04;22.40;82.70
21551;DHT22;10936;49.836;7.078;2023-02-15T11:47:32;22.40;82.80
21551;DHT22;10936;49.836;7.078;2023-02-15T11:49:59;22.40;82.80
21551;DHT22;10936;49.836;7.078;2023-02-15T11:52:25;22.50;82.80
21551;DHT22;10936;49.836;7.078;2023-02-15T11:54:51;22.40;82.80
21551;DHT22;10936;49.836;7.078;2023-02-15T11:57:30;22.40;82.70
21551;DHT22;10936;49.836;7.078;2023-02-15T12:02:44;22.50;82.70
21551;DHT22;10936;49.836;7.078;2023-02-15T12:05:21;22.40;82.70
21551;DHT22;10936;49.836;7.078;2023-02-15T12:07:54;22.40;82.60
21551;DHT22;10936;49.836;7.078;2023-02-15T12:10:27;22.40;82.60
21551;DHT22;10936;49.836;7.078;2023-02-15T12:15:42;22.50;82.60
21551;DHT22;10936;49.836;7.078;2023-02-15T12:18:52;22.40;82.60
21551;DHT22;10936;49.836;7.078;2023-02-15T12:21:24;22.40;82.60
21551;DHT22;10936;49.836;7.078;2023-02-15T12:23:52;22.50;82.50
21551;DHT22;10936;49.836;7.078;2023-02-15T12:26:32;22.40;82.50
21551;DHT22;10936;49.836;7.078;2023-02-15T12:29:01;22.50;82.60
21551;DHT22;10936;49.836;7.078;2023-02-15T12:31:37;22.40;82.60
21551;DHT22;10936;49.836;7.078;2023-02-15T12:34:11;22.40;82.60
21551;DHT22;10936;49.836;7.078;2023-02-15T12:36:49;22.40;82.70
21551;DHT22;10936;49.836;7.078;2023-02-15T12:39:25;22.40;82.60
21551;DHT22;10936;49.836;7.078;2023-02-15T12:44:34;22.40;82.80
21551;DHT22;10936;49.836;7.078;2023-02-15T12:47:18;22.40;82.80
21551;DHT22;10936;49.836;7.078;2023-02-15T12:50:03;22.40;82.80
21551;DHT22;10936;49.836;7.078;2023-02-15T12:52:29;22.40;82.90
21551;DHT22;10936;49.836;7.078;2023-02-15T12:54:55;22.40;83.00
21551;DHT22;10936;49.836;7.078;2023-02-15T12:57:34;22.50;83.10
21551;DHT22;10936;49.836;7.078;2023-02-15T13:00:25;22.40;83.00
21551;DHT22;10936;49.836;7.078;2023-02-15T13:02:53;22.40;83.00
21551;DHT22;10936;49.836;7.078;2023-02-15T13:05:33;22.40;83.00
21551;DHT22;10936;49.836;7.078;2023-02-15T13:10:41;22.50;83.10
21551;DHT22;10936;49.836;7.078;2023-02-15T13:13:20;22.50;83.90
21551;DHT22;10936;49.836;7.078;2023-02-15T13:15:50;22.50;83.20
21551;DHT22;10936;49.836;7.078;2023-02-15T13:18:26;22.50;83.10
21551;DHT22;10936;49.836;7.078;2023-02-15T13:20:54;22.50;83.20
21551;DHT22;10936;49.836;7.078;2023-02-15T13:23:28;22.50;83.30
21551;DHT22;10936;49.836;7.078;2023-02-15T13:25:56;22.50;83.30
21551;DHT22;10936;49.836;7.078;2023-02-15T13:28:32;22.50;83.40
21551;DHT22;10936;49.836;7.078;2023-02-15T13:31:00;22.50;83.40
21551;DHT22;10936;49.836;7.078;2023-02-15T13:33:34;22.50;83.60
21551;DHT22;10936;49.836;7.078;2023-02-15T13:47:25;22.50;83.70
21551;DHT22;10936;49.836;7.078;2023-02-15T13:52:33;22.50;83.80
21551;DHT22;10936;49.836;7.078;2023-02-15T14:00:26;22.50;83.90
21551;DHT22;10936;49.836;7.078;2023-02-15T14:08:38;22.50;83.80
21551;DHT22;10936;49.836;7.078;2023-02-15T14:11:21;22.50;83.80
21551;DHT22;10936;49.836;7.078;2023-02-15T14:22:10;22.60;83.70
21551;DHT22;10936;49.836;7.078;2023-02-15T14:24:41;22.60;83.60
21551;DHT22;10936;49.836;7.078;2023-02-15T14:27:37;22.60;83.60
21551;DHT22;10936;49.836;7.078;2023-02-15T14:30:15;22.60;83.50
21551;DHT22;10936;49.836;7.078;2023-02-15T14:32:45;22.60;83.40
21551;DHT22;10936;49.836;7.078;2023-02-15T14:35:14;22.60;83.40
21551;DHT22;10936;49.836;7.078;2023-02-15T14:46:35;22.60;83.10
21551;DHT22;10936;49.836;7.078;2023-02-15T14:56:45;22.60;83.10
21551;DHT22;10936;49.836;7.078;2023-02-15T15:01:38;22.60;83.20
21551;DHT22;10936;49.836;7.078;2023-02-15T15:04:29;22.60;83.10
21551;DHT22;10936;49.836;7.078;2023-02-15T15:07:03;22.60;83.10
21551;DHT22;10936;49.836;7.078;2023-02-15T15:09:35;22.50;83.10
21551;DHT22;10936;49.836;7.078;2023-02-15T15:14:46;22.50;83.10
21551;DHT22;10936;49.836;7.078;2023-02-15T15:17:51;22.50;83.20
21551;DHT22;10936;49.836;7.078;2023-02-15T15:22:41;22.50;83.50
21551;DHT22;10936;49.836;7.078;2023-02-15T15:27:59;22.50;84.10
21551;DHT22;10936;49.836;7.078;2023-02-15T15:32:59;22.50;84.10
21551;DHT22;10936;49.836;7.078;2023-02-15T15:49:38;22.40;84.10
21551;DHT22;10936;49.836;7.078;2023-02-15T15:52:15;22.40;84.20
21551;DHT22;10936;49.836;7.078;2023-02-15T15:54:42;22.30;84.30
21551;DHT22;10936;49.836;7.078;2023-02-15T15:57:27;22.30;84.30
21551;DHT22;10936;49.836;7.078;2023-02-15T15:59:53;22.30;84.30
21551;DHT22;10936;49.836;7.078;2023-02-15T16:02:20;22.30;84.40
21551;DHT22;10936;49.836;7.078;2023-02-15T16:04:46;22.30;84.40
21551;DHT22;10936;49.836;7.078;2023-02-15T16:12:19;22.20;84.60
21551;DHT22;10936;49.836;7.078;2023-02-15T16:14:45;22.20;84.60
21551;DHT22;10936;49.836;7.078;2023-02-15T16:17:24;22.20;84.60
21551;DHT22;10936;49.836;7.078;2023-02-15T16:19:52;22.10;84.60
21551;DHT22;10936;49.836;7.078;2023-02-15T16:22:21;22.10;84.70
21551;DHT22;10936;49.836;7.078;2023-02-15T16:25:18;22.10;84.70
21551;DHT22;10936;49.836;7.078;2023-02-15T16:27:46;22.10;84.80
21551;DHT22;10936;49.836;7.078;2023-02-15T16:30:33;22.10;84.90
21551;DHT22;10936;49.836;7.078;2023-02-15T16:35:37;22.00;85.80
21551;DHT22;10936;49.836;7.078;2023-02-15T16:38:04;22.00;85.00
21551;DHT22;10936;49.836;7.078;2023-02-15T16:40:54;22.00;85.10
21551;DHT22;10936;49.836;7.078;2023-02-15T16:43:29;22.00;85.20
21551;DHT22;10936;49.836;7.078;2023-02-15T16:46:04;22.00;85.20
21551;DHT22;10936;49.836;7.078;2023-02-15T16:48:32;21.90;85.30
21551;DHT22;10936;49.836;7.078;2023-02-15T16:50:59;21.90;85.30
21551;DHT22;10936;49.836;7.078;2023-02-15T16:53:28;21.90;85.40
21551;DHT22;10936;49.836;7.078;2023-02-15T16:55:56;21.90;85.50
21551;DHT22;10936;49.836;7.078;2023-02-15T16:58:27;21.90;85.50
21551;DHT22;10936;49.836;7.078;2023-02-15T17:00:57;21.90;85.50
21551;DHT22;10936;49.836;7.078;2023-02-15T17:03:24;21.80;86.30
21551;DHT22;10936;49.836;7.078;2023-02-15T17:05:55;21.80;85.50
21551;DHT22;10936;49.836;7.078;2023-02-15T17:08:33;21.80;85.70
21551;DHT22;10936;49.836;7.078;2023-02-15T17:13:26;21.80;85.70
21551;DHT22;10936;49.836;7.078;2023-02-15T17:18:24;21.80;85.70
21551;DHT22;10936;49.836;7.078;2023-02-15T17:20:54;21.80;85.80
21551;DHT22;10936;49.836;7.078;2023-02-15T17:25:52;21.70;85.70
21551;DHT22;10936;49.836;7.078;2023-02-15T17:28:27;21.70;85.80
21551;DHT22;10936;49.836;7.078;2023-02-15T17:30:53;21.70;85.80
21551;DHT22;10936;49.836;7.078;2023-02-15T17:33:37;21.70;85.90
21551;DHT22;10936;49.836;7.078;2023-02-15T17:36:21;21.60;85.90
21551;DHT22;10936;49.836;7.078;2023-02-15T17:41:27;21.60;86.00
21551;DHT22;10936;49.836;7.078;2023-02-15T17:43:53;21.60;86.00
21551;DHT22;10936;49.836;7.078;2023-02-15T17:46:18;21.60;85.90
21551;DHT22;10936;49.836;7.078;2023-02-15T17:48:52;21.60;86.10
21551;DHT22;10936;49.836;7.078;2023-02-15T17:51:19;21.50;86.00
21551;DHT22;10936;49.836;7.078;2023-02-15T17:53:45;21.50;86.10
21551;DHT22;10936;49.836;7.078;2023-02-15T17:56:31;21.50;86.10
21551;DHT22;10936;49.836;7.078;2023-02-15T17:58:56;21.50;86.50
21551;DHT22;10936;49.836;7.078;2023-02-15T18:01:22;21.50;86.20
21551;DHT22;10936;49.836;7.078;2023-02-15T18:04:14;21.50;86.20
21551;DHT22;10936;49.836;7.078;2023-02-15T18:06:58;21.50;86.20
21551;DHT22;10936;49.836;7.078;2023-02-15T18:09:43;21.50;86.30
21551;DHT22;10936;49.836;7.078;2023-02-15T18:12:31;21.40;86.30
21551;DHT22;10936;49.836;7.078;2023-02-15T18:14:57;21.40;86.40
21551;DHT22;10936;49.836;7.078;2023-02-15T18:17:33;21.40;86.40
21551;DHT22;10936;49.836;7.078;2023-02-15T18:20:00;21.40;86.50
21551;DHT22;10936;49.836;7.078;2023-02-15T18:22:29;21.40;86.50
21551;DHT22;10936;49.836;7.078;2023-02-15T18:24:55;21.40;86.50
21551;DHT22;10936;49.836;7.078;2023-02-15T18:27:22;21.40;86.50
21551;DHT22;10936;49.836;7.078;2023-02-15T18:29:47;21.30;86.50
21551;DHT22;10936;49.836;7.078;2023-02-15T18:32:32;21.40;86.60
21551;DHT22;10936;49.836;7.078;2023-02-15T18:35:00;21.30;86.60
21551;DHT22;10936;49.836;7.078;2023-02-15T18:37:30;21.30;87.50
21551;DHT22;10936;49.836;7.078;2023-02-15T18:39:57;21.30;86.70
21551;DHT22;10936;49.836;7.078;2023-02-15T18:42:24;21.30;86.60
21551;DHT22;10936;49.836;7.078;2023-02-15T18:45:03;21.30;86.70
21551;DHT22;10936;49.836;7.078;2023-02-15T18:47:35;21.30;87.60
21551;DHT22;10936;49.836;7.078;2023-02-15T18:50:00;21.30;86.80
21551;DHT22;10936;49.836;7.078;2023-02-15T18:52:30;21.30;86.90
21551;DHT22;10936;49.836;7.078;2023-02-15T18:54:59;21.20;86.80
21551;DHT22;10936;49.836;7.078;2023-02-15T18:57:27;21.30;87.00
21551;DHT22;10936;49.836;7.078;2023-02-15T18:59:53;21.20;87.00
21551;DHT22;10936;49.836;7.078;2023-02-15T19:02:19;21.20;86.90
21551;DHT22;10936;49.836;7.078;2023-02-15T19:04:45;21.20;86.90
21551;DHT22;10936;49.836;7.078;2023-02-15T19:07:31;21.20;86.80
21551;DHT22;10936;49.836;7.078;2023-02-15T19:09:59;21.20;86.90
21551;DHT22;10936;49.836;7.078;2023-02-15T19:12:27;21.20;86.90
21551;DHT22;10936;49.836;7.078;2023-02-15T19:14:53;21.10;86.90
21551;DHT22;10936;49.836;7.078;2023-02-15T19:17:21;21.10;87.80
21551;DHT22;10936;49.836;7.078;2023-02-15T19:19:47;21.10;87.00
21551;DHT22;10936;49.836;7.078;2023-02-15T19:22:24;21.10;87.10
21551;DHT22;10936;49.836;7.078;2023-02-15T19:24:50;21.10;87.20
21551;DHT22;10936;49.836;7.078;2023-02-15T19:27:31;21.10;87.20
21551;DHT22;10936;49.836;7.078;2023-02-15T19:30:03;21.10;87.10
21551;DHT22;10936;49.836;7.078;2023-02-15T19:32:29;21.10;87.20
21551;DHT22;10936;49.836;7.078;2023-02-15T19:34:56;21.10;87.20
21551;DHT22;10936;49.836;7.078;2023-02-15T19:37:25;21.10;87.30
21551;DHT22;10936;49.836;7.078;2023-02-15T19:39:52;21.10;87.20
21551;DHT22;10936;49.836;7.078;2023-02-15T19:42:21;21.10;87.30
21551;DHT22;10936;49.836;7.078;2023-02-15T19:44:48;21.10;87.30
21551;DHT22;10936;49.836;7.078;2023-02-15T19:47:14;21.10;87.40
21551;DHT22;10936;49.836;7.078;2023-02-15T19:49:40;21.10;87.40
21551;DHT22;10936;49.836;7.078;2023-02-15T19:52:17;21.10;87.40
21551;DHT22;10936;49.836;7.078;2023-02-15T19:54:43;21.10;87.40
21551;DHT22;10936;49.836;7.078;2023-02-15T19:57:12;21.10;87.40
21551;DHT22;10936;49.836;7.078;2023-02-15T19:59:39;21.00;87.40
21551;DHT22;10936;49.836;7.078;2023-02-15T20:02:05;21.00;88.30
21551;DHT22;10936;49.836;7.078;2023-02-15T20:04:32;21.00;87.50
21551;DHT22;10936;49.836;7.078;2023-02-15T20:07:00;21.00;87.50
21551;DHT22;10936;49.836;7.078;2023-02-15T20:09:31;21.00;88.30
21551;DHT22;10936;49.836;7.078;2023-02-15T20:11:58;21.00;87.60
21551;DHT22;10936;49.836;7.078;2023-02-15T20:14:24;21.00;87.50
21551;DHT22;10936;49.836;7.078;2023-02-15T20:16:50;21.00;87.60
21551;DHT22;10936;49.836;7.078;2023-02-15T20:19:16;21.00;87.70
21551;DHT22;10936;49.836;7.078;2023-02-15T20:21:43;21.00;87.50
21551;DHT22;10936;49.836;7.078;2023-02-15T20:24:17;21.00;87.40
21551;DHT22;10936;49.836;7.078;2023-02-15T20:26:44;21.00;87.40
21551;DHT22;10936;49.836;7.078;2023-02-15T20:29:13;21.00;87.50
21551;DHT22;10936;49.836;7.078;2023-02-15T20:31:39;21.00;87.50
21551;DHT22;10936;49.836;7.078;2023-02-15T20:34:05;20.90;87.50
21551;DHT22;10936;49.836;7.078;2023-02-15T20:36:31;20.90;87.60
21551;DHT22;10936;49.836;7.078;2023-02-15T20:39:00;20.90;87.70
21551;DHT22;10936;49.836;7.078;2023-02-15T20:41:27;20.90;87.70
21551;DHT22;10936;49.836;7.078;2023-02-15T20:44:22;20.90;87.80
21551;DHT22;10936;49.836;7.078;2023-02-15T20:46:51;20.90;87.80
21551;DHT22;10936;49.836;7.078;2023-02-15T20:49:17;20.90;87.80
21551;DHT22;10936;49.836;7.078;2023-02-15T20:51:43;20.90;87.80
21551;DHT22;10936;49.836;7.078;2023-02-15T20:54:16;20.90;87.80
21551;DHT22;10936;49.836;7.078;2023-02-15T20:56:43;20.90;88.60
21551;DHT22;10936;49.836;7.078;2023-02-15T20:59:21;20.90;87.90
21551;DHT22;10936;49.836;7.078;2023-02-15T21:01:48;20.90;88.60
21551;DHT22;10936;49.836;7.078;2023-02-15T21:04:27;20.90;87.90
21551;DHT22;10936;49.836;7.078;2023-02-15T21:06:53;20.90;88.00
21551;DHT22;10936;49.836;7.078;2023-02-15T21:09:19;20.90;88.70
21551;DHT22;10936;49.836;7.078;2023-02-15T21:11:44;20.90;88.00
21551;DHT22;10936;49.836;7.078;2023-02-15T21:14:19;20.90;88.00
21551;DHT22;10936;49.836;7.078;2023-02-15T21:16:46;20.90;88.10
21551;DHT22;10936;49.836;7.078;2023-02-15T21:19:13;20.90;88.10
21551;DHT22;10936;49.836;7.078;2023-02-15T21:21:40;20.90;88.10
21551;DHT22;10936;49.836;7.078;2023-02-15T21:24:10;20.90;88.10
21551;DHT22;10936;49.836;7.078;2023-02-15T21:26:38;20.90;88.20
21551;DHT22;10936;49.836;7.078;2023-02-15T21:29:17;20.90;88.10
21551;DHT22;10936;49.836;7.078;2023-02-15T21:31:43;20.90;88.10
21551;DHT22;10936;49.836;7.078;2023-02-15T21:34:09;20.90;88.10
21551;DHT22;10936;49.836;7.078;2023-02-15T21:36:35;20.80;88.20
21551;DHT22;10936;49.836;7.078;2023-02-15T21:39:01;20.80;88.30
21551;DHT22;10936;49.836;7.078;2023-02-15T21:41:26;20.80;88.30
21551;DHT22;10936;49.836;7.078;2023-02-15T21:44:20;20.80;88.30
21551;DHT22;10936;49.836;7.078;2023-02-15T21:47:05;20.80;88.40
21551;DHT22;10936;49.836;7.078;2023-02-15T21:49:49;20.80;88.30
21551;DHT22;10936;49.836;7.078;2023-02-15T21:52:18;20.80;88.30
21551;DHT22;10936;49.836;7.078;2023-02-15T21:54:45;20.80;88.30
21551;DHT22;10936;49.836;7.078;2023-02-15T21:57:12;20.80;88.30
21551;DHT22;10936;49.836;7.078;2023-02-15T21:59:38;20.80;88.10
21551;DHT22;10936;49.836;7.078;2023-02-15T22:02:25;20.90;88.20
21551;DHT22;10936;49.836;7.078;2023-02-15T22:04:51;20.90;88.00
21551;DHT22;10936;49.836;7.078;2023-02-15T22:07:17;20.80;88.00
21551;DHT22;10936;49.836;7.078;2023-02-15T22:09:45;20.80;87.80
21551;DHT22;10936;49.836;7.078;2023-02-15T22:12:16;20.90;88.70
21551;DHT22;10936;49.836;7.078;2023-02-15T22:14:43;20.80;87.80
21551;DHT22;10936;49.836;7.078;2023-02-15T22:17:22;20.80;87.70
21551;DHT22;10936;49.836;7.078;2023-02-15T22:19:49;20.90;88.50
21551;DHT22;10936;49.836;7.078;2023-02-15T22:22:15;20.80;87.50
21551;DHT22;10936;49.836;7.078;2023-02-15T22:24:42;20.90;87.60
21551;DHT22;10936;49.836;7.078;2023-02-15T22:27:25;20.80;87.50
21551;DHT22;10936;49.836;7.078;2023-02-15T22:29:53;20.80;87.40
